Time;durP1;ratioP1;P1;durP2;ratioP2;P2;SDS_P1;SDS_P2;PMS_P1;PMS_P2;Temp;Humidity;BMP_temperature;BMP_pressure;BME280_temperature;BME280_humidity;BME280_pressure;Samples;Min_cycle;Max_cycle;Signal;HPM_P1;HPM_P2
2023/07/24 00:00:11;;;;;;;10.88;9.68;;;;;;;15.59;100.00;100120.81;5045460;28;20186;-41
2023/07/24 00:02:36;;;;;;;10.15;9.15;;;;;;;15.56;100.00;100118.31;5037615;28;20233;-41
2023/07/24 00:05:02;;;;;;;9.65;8.82;;;;;;;15.58;100.00;100124.47;5043326;28;20266;-41
2023/07/24 00:07:27;;;;;;;9.77;8.98;;;;;;;15.58;100.00;100123.63;5045686;28;20677;-40
2023/07/24 00:09:53;;;;;;;11.45;9.38;;;;;;;15.57;100.00;100116.50;5043476;28;20593;-41
2023/07/24 00:12:18;;;;;;;13.88;9.52;;;;;;;15.62;100.00;100111.63;5040091;28;20204;-41
2023/07/24 00:14:44;;;;;;;10.73;9.52;;;;;;;15.58;100.00;100102.03;5046677;28;20268;-42
2023/07/24 00:17:09;;;;;;;10.30;9.40;;;;;;;15.55;100.00;100115.75;5038608;28;20203;-41
2023/07/24 00:19:35;;;;;;;12.55;9.65;;;;;;;15.55;100.00;100099.56;5039142;28;20282;-38
2023/07/24 00:22:00;;;;;;;10.02;9.13;;;;;;;15.59;100.00;100109.13;5046581;28;20194;-40
2023/07/24 00:24:26;;;;;;;10.75;9.63;;;;;;;15.55;100.00;100107.66;5042030;28;20244;-40
2023/07/24 00:26:52;;;;;;;10.00;9.07;;;;;;;15.54;100.00;100105.91;5039723;28;20214;-43
2023/07/24 00:29:17;;;;;;;10.32;9.40;;;;;;;15.55;100.00;100105.81;5025269;28;20183;-40
2023/07/24 00:31:43;;;;;;;10.70;9.32;;;;;;;15.58;100.00;100094.78;5026941;28;20570;-39
2023/07/24 00:34:08;;;;;;;11.55;9.35;;;;;;;15.55;100.00;100096.84;5027585;28;20541;-41
2023/07/24 00:36:34;;;;;;;9.77;8.75;;;;;;;15.54;100.00;100104.06;5042584;28;20298;-41
2023/07/24 00:38:59;;;;;;;13.18;9.55;;;;;;;15.56;100.00;100096.72;5043314;28;20233;-40
2023/07/24 00:41:25;;;;;;;10.27;9.38;;;;;;;15.59;100.00;100095.63;5033878;28;20396;-39
2023/07/24 00:43:53;;;;;;;14.90;9.20;;;;;;;15.56;100.00;100094.03;5039688;28;20203;-41
2023/07/24 00:46:18;;;;;;;12.05;9.55;;;;;;;15.57;100.00;100103.00;5041829;28;20238;-41
2023/07/24 00:48:44;;;;;;;10.68;9.57;;;;;;;15.57;100.00;100101.16;5042511;28;20275;-42
2023/07/24 00:51:09;;;;;;;12.57;9.10;;;;;;;15.56;100.00;100107.53;5041412;28;20184;-41
2023/07/24 00:53:35;;;;;;;9.63;8.73;;;;;;;15.64;100.00;100096.19;5040907;28;20179;-41
2023/07/24 00:56:01;;;;;;;11.02;9.68;;;;;;;15.60;100.00;100106.34;5045127;28;20206;-41
2023/07/24 00:58:27;;;;;;;10.85;9.63;;;;;;;15.60;100.00;100090.13;5032504;28;20677;-41
2023/07/24 01:00:56;;;;;;;11.23;10.13;;;;;;;15.62;100.00;100087.34;5039681;28;20560;-41
2023/07/24 01:03:32;;;;;;;10.13;9.23;;;;;;;15.64;100.00;100096.19;5029481;28;20187;-42
2023/07/24 01:05:57;;;;;;;11.65;9.23;;;;;;;15.67;100.00;100095.97;5041128;28;20649;-40
2023/07/24 01:08:23;;;;;;;10.82;9.73;;;;;;;15.72;100.00;100088.44;5035205;28;20213;-41
2023/07/24 01:10:49;;;;;;;12.55;10.13;;;;;;;15.75;100.00;100092.75;5040169;28;20614;-42
2023/07/24 01:13:22;;;;;;;14.40;9.45;;;;;;;15.72;100.00;100076.75;5027381;28;20209;-42
2023/07/24 01:16:00;;;;;;;11.50;10.27;;;;;;;15.69;100.00;100082.34;5041620;28;20215;-41
2023/07/24 01:18:30;;;;;;;13.00;9.35;;;;;;;15.67;100.00;100077.06;5030331;28;20186;-41
2023/07/24 01:20:57;;;;;;;12.82;9.68;;;;;;;15.63;100.00;100081.84;5039097;28;20186;-41
2023/07/24 01:24:04;;;;;;;12.38;9.82;;;;;;;15.60;100.00;100073.94;5037084;28;20805;-41
2023/07/24 01:26:30;;;;;;;13.70;10.00;;;;;;;15.66;100.00;100059.13;5026981;28;20732;-40
2023/07/24 01:28:56;;;;;;;9.98;8.98;;;;;;;15.62;100.00;100063.03;5028191;28;20249;-41
2023/07/24 01:31:21;;;;;;;11.13;10.00;;;;;;;15.61;100.00;100059.47;5040396;28;20188;-41
2023/07/24 01:33:47;;;;;;;13.20;9.63;;;;;;;15.62;100.00;100061.19;5040172;28;20221;-40
2023/07/24 01:36:18;;;;;;;12.73;9.85;;;;;;;15.62;100.00;100068.44;5038077;28;20234;-43
2023/07/24 01:38:44;;;;;;;15.32;10.13;;;;;;;15.59;100.00;100066.81;5040676;28;20274;-40
2023/07/24 01:41:10;;;;;;;11.50;10.32;;;;;;;15.60;100.00;100073.94;5044022;28;20658;-41
2023/07/24 01:43:36;;;;;;;12.68;10.00;;;;;;;15.60;100.00;100064.97;5041030;28;20187;-43
2023/07/24 01:46:02;;;;;;;12.95;10.23;;;;;;;15.54;100.00;100058.16;5044617;28;20202;-40
2023/07/24 01:48:28;;;;;;;11.50;10.30;;;;;;;15.58;100.00;100062.38;5039650;28;20642;-40
2023/07/24 01:50:53;;;;;;;11.55;10.35;;;;;;;15.61;100.00;100059.47;5035181;28;20630;-40
2023/07/24 01:53:19;;;;;;;13.52;11.20;;;;;;;15.58;100.00;100062.38;5028142;28;20215;-40
2023/07/24 01:55:46;;;;;;;11.25;10.15;;;;;;;15.56;100.00;100063.47;5038761;28;20568;-42
2023/07/24 01:58:11;;;;;;;13.43;11.10;;;;;;;15.58;100.00;100061.53;5038372;28;20191;-43
2023/07/24 02:00:36;;;;;;;15.13;10.95;;;;;;;15.63;100.00;100062.94;5029142;28;20179;-40
2023/07/24 02:03:02;;;;;;;14.48;10.85;;;;;;;15.61;100.00;100064.88;5041607;28;20171;-42
2023/07/24 02:05:27;;;;;;;12.10;10.75;;;;;;;15.62;100.00;100066.59;5025823;28;20187;-41
2023/07/24 02:07:53;;;;;;;14.10;10.68;;;;;;;15.66;100.00;100065.41;5040268;28;20202;-40
2023/07/24 02:10:18;;;;;;;14.15;11.45;;;;;;;15.61;100.00;100055.88;5040590;28;20210;-41
2023/07/24 02:12:44;;;;;;;12.30;10.82;;;;;;;15.59;100.00;100061.41;5044438;28;20183;-40
2023/07/24 02:15:10;;;;;;;19.30;10.32;;;;;;;15.60;100.00;100068.53;5041736;28;20566;-40
2023/07/24 02:17:35;;;;;;;15.73;11.60;;;;;;;15.60;100.00;100059.56;5039716;28;20211;-42
2023/07/24 02:20:01;;;;;;;17.48;10.43;;;;;;;15.62;100.00;100058.50;5040221;28;20211;-41
2023/07/24 02:22:27;;;;;;;15.20;12.05;;;;;;;15.65;100.00;100058.28;5039452;28;20167;-42
2023/07/24 02:24:52;;;;;;;13.35;11.38;;;;;;;15.71;100.00;100045.31;5037576;28;20184;-40
2023/07/24 02:27:31;;;;;;;12.77;11.05;;;;;;;15.69;100.00;100045.41;5036861;28;20227;-41
2023/07/24 02:29:57;;;;;;;13.43;11.30;;;;;;;15.67;100.00;100050.06;5027943;28;20300;-39
2023/07/24 02:32:23;;;;;;;12.93;11.07;;;;;;;15.75;100.00;100050.41;5026532;28;20187;-42
2023/07/24 02:34:53;;;;;;;12.40;11.10;;;;;;;15.80;100.00;100044.66;5027593;28;20195;-40
2023/07/24 02:37:19;;;;;;;12.98;11.65;;;;;;;15.85;100.00;100046.06;5042925;28;20183;-43
2023/07/24 02:39:45;;;;;;;13.40;11.95;;;;;;;15.88;100.00;100050.38;5037999;28;20577;-42
2023/07/24 02:42:10;;;;;;;14.85;12.10;;;;;;;15.89;100.00;100053.94;5041672;28;20182;-41
2023/07/24 02:44:36;;;;;;;11.93;10.65;;;;;;;15.96;100.00;100053.41;5041162;28;20180;-42
2023/07/24 02:47:02;;;;;;;12.73;11.40;;;;;;;15.97;100.00;100056.94;5040739;28;20261;-41
2023/07/24 02:49:29;;;;;;;12.73;10.73;;;;;;;15.94;100.00;100063.44;5039394;28;20191;-40
2023/07/24 02:51:54;;;;;;;11.93;10.65;;;;;;;15.95;100.00;100070.56;5036372;28;20200;-41
2023/07/24 02:54:19;;;;;;;12.07;10.75;;;;;;;15.98;100.00;100053.25;5032894;28;20220;-41
2023/07/24 02:56:45;;;;;;;13.65;10.90;;;;;;;16.00;100.00;100059.41;5043667;28;20288;-42
2023/07/24 02:59:10;;;;;;;12.15;10.95;;;;;;;16.01;100.00;100047.66;5042723;28;20202;-40
2023/07/24 03:01:36;;;;;;;15.50;10.20;;;;;;;16.04;100.00;100044.72;5021569;28;20172;-42
2023/07/24 03:04:02;;;;;;;11.80;10.63;;;;;;;16.09;100.00;100057.88;5039699;28;20638;-41
2023/07/24 03:06:29;;;;;;;13.48;10.88;;;;;;;16.06;100.00;100058.97;5003739;28;20237;-42
2023/07/24 03:08:55;;;;;;;12.60;11.50;;;;;;;16.08;100.00;100051.63;5040465;28;20211;-40
2023/07/24 03:11:21;;;;;;;15.40;10.50;;;;;;;16.10;100.00;100056.91;5024531;28;20186;-42
2023/07/24 03:13:46;;;;;;;13.25;10.50;;;;;;;16.08;100.00;100050.75;5036881;28;20280;-42
2023/07/24 03:16:12;;;;;;;12.10;10.68;;;;;;;16.12;100.00;100046.88;5023212;28;20219;-40
2023/07/24 03:18:37;;;;;;;16.67;11.15;;;;;;;16.16;100.00;100038.41;5038574;28;20552;-40
2023/07/24 03:21:03;;;;;;;12.93;10.18;;;;;;;16.13;100.00;100035.06;5029150;28;20211;-42
2023/07/24 03:23:29;;;;;;;15.57;11.00;;;;;;;16.15;100.00;100042.06;5037045;28;20182;-41
2023/07/24 03:25:54;;;;;;;11.50;9.75;;;;;;;16.15;100.00;100042.06;5041413;28;20593;-42
2023/07/24 03:28:20;;;;;;;10.52;9.52;;;;;;;16.18;100.00;100036.47;5040777;28;20304;-42
2023/07/24 03:30:45;;;;;;;11.88;9.93;;;;;;;16.16;100.00;100030.31;5027041;28;20318;-40
2023/07/24 03:33:12;;;;;;;11.63;10.10;;;;;;;16.18;100.00;100024.75;5041990;28;20195;-43
2023/07/24 03:35:39;;;;;;;11.57;10.38;;;;;;;16.19;100.00;100027.34;5045028;28;20298;-41
2023/07/24 03:38:04;;;;;;;10.93;9.65;;;;;;;16.28;100.00;100023.97;5034475;28;20224;-42
2023/07/24 03:40:32;;;;;;;13.02;10.27;;;;;;;16.27;100.00;100022.25;5031964;28;20715;-41
2023/07/24 03:42:57;;;;;;;13.13;9.60;;;;;;;16.29;100.00;100016.75;5040133;28;20190;-39
2023/07/24 03:45:23;;;;;;;10.35;9.35;;;;;;;16.32;100.00;100019.19;5028992;28;20165;-41
2023/07/24 03:47:48;;;;;;;10.82;9.68;;;;;;;16.30;100.00;100010.34;5043734;28;20649;-41
2023/07/24 03:50:14;;;;;;;11.15;9.73;;;;;;;16.32;100.00;100021.03;5045107;28;20182;-41
2023/07/24 03:52:39;;;;;;;12.63;9.70;;;;;;;16.30;100.00;100007.63;5042724;28;20175;-42
2023/07/24 03:55:05;;;;;;;13.60;9.63;;;;;;;16.32;100.00;100000.28;5043033;28;20208;-42
2023/07/24 03:57:31;;;;;;;12.95;9.43;;;;;;;16.33;100.00;100003.84;5043522;28;20587;-41
2023/07/24 03:59:56;;;;;;;10.70;9.13;;;;;;;16.33;100.00;100011.94;5042392;28;20309;-40
2023/07/24 04:02:23;;;;;;;12.25;9.50;;;;;;;16.32;100.00;99994.00;5039604;28;20548;-44
2023/07/24 04:04:48;;;;;;;11.52;8.45;;;;;;;16.35;100.00;100000.03;5040194;28;20666;-42
2023/07/24 04:07:13;;;;;;;12.48;8.70;;;;;;;16.34;100.00;99992.06;5040368;28;20280;-42
2023/07/24 04:09:39;;;;;;;13.38;8.60;;;;;;;16.34;100.00;99981.25;5041649;28;20204;-41
2023/07/24 04:12:05;;;;;;;12.07;9.45;;;;;;;16.33;100.00;99995.72;5040284;28;20222;-41
2023/07/24 04:14:30;;;;;;;10.93;8.32;;;;;;;16.34;100.00;99987.50;5039028;28;20222;-42
2023/07/24 04:16:56;;;;;;;12.05;8.40;;;;;;;16.36;100.00;99985.56;5042855;28;20226;-42
2023/07/24 04:19:21;;;;;;;13.48;9.27;;;;;;;16.35;100.00;99989.22;5020779;28;20209;-42
2023/07/24 04:21:47;;;;;;;10.65;8.88;;;;;;;16.35;100.00;99988.34;5044065;28;20535;-41
2023/07/24 04:24:12;;;;;;;11.48;8.75;;;;;;;16.36;100.00;99992.81;5042082;28;20515;-41
2023/07/24 04:26:39;;;;;;;18.80;9.48;;;;;;;16.36;100.00;99995.50;5042764;28;20564;-40
2023/07/24 04:29:05;;;;;;;9.68;8.68;;;;;;;16.37;100.00;99995.38;5038865;28;20190;-41
2023/07/24 04:31:31;;;;;;;11.15;9.30;;;;;;;16.37;100.00;99998.06;5028319;28;20207;-41
2023/07/24 04:33:56;;;;;;;14.98;9.10;;;;;;;16.41;100.00;99987.91;5037808;28;20222;-40
2023/07/24 04:36:22;;;;;;;12.32;8.50;;;;;;;16.45;100.00;100000.22;5043308;28;20639;-43
2023/07/24 04:38:48;;;;;;;14.60;8.88;;;;;;;16.40;100.00;99987.03;5044513;28;20257;-41
2023/07/24 04:41:13;;;;;;;10.90;8.38;;;;;;;16.45;100.00;99994.81;5043889;28;20313;-42
2023/07/24 04:43:39;;;;;;;14.88;8.68;;;;;;;16.46;100.00;99991.09;5029013;28;20207;-42
2023/07/24 04:46:04;;;;;;;12.65;8.88;;;;;;;16.40;100.00;99987.03;5042268;28;20299;-41
2023/07/24 04:48:30;;;;;;;12.85;9.43;;;;;;;16.40;100.00;99992.44;5040312;28;20198;-42
2023/07/24 04:50:56;;;;;;;11.55;8.98;;;;;;;16.41;100.00;99988.75;5041911;28;20206;-42
2023/07/24 04:53:22;;;;;;;13.57;9.18;;;;;;;16.43;100.00;99992.22;5040462;28;20183;-41
2023/07/24 04:55:48;;;;;;;11.32;9.10;;;;;;;16.41;100.00;99988.75;5041709;28;20404;-41
2023/07/24 04:58:14;;;;;;;12.55;9.25;;;;;;;16.44;100.00;99980.44;5040283;28;20263;-42
2023/07/24 05:00:39;;;;;;;16.25;8.93;;;;;;;16.46;100.00;99973.06;5042274;28;20499;-40
2023/07/24 05:03:06;;;;;;;11.25;8.50;;;;;;;16.54;100.00;99971.59;5038486;28;20185;-41
2023/07/24 05:05:31;;;;;;;13.65;8.80;;;;;;;16.51;100.00;99978.13;5045730;28;20296;-43
2023/07/24 05:07:57;;;;;;;13.95;8.77;;;;;;;16.56;100.00;99972.34;5039658;28;20270;-41
2023/07/24 05:10:23;;;;;;;11.38;8.55;;;;;;;16.55;100.00;99973.31;5040995;28;20175;-42
2023/07/24 05:12:48;;;;;;;12.38;8.77;;;;;;;16.55;100.00;99967.91;5035721;28;20599;-41
2023/07/24 05:15:16;;;;;;;13.50;8.98;;;;;;;16.53;100.00;99970.75;5039731;28;20187;-41
2023/07/24 05:17:43;;;;;;;9.77;8.63;;;;;;;16.55;100.00;99963.38;5042619;28;20266;-41
2023/07/24 05:20:09;;;;;;;9.43;8.30;;;;;;;16.58;100.00;99967.69;5029488;28;20650;-41
2023/07/24 05:22:34;;;;;;;13.35;9.32;;;;;;;16.64;100.00;99951.84;5040136;28;20180;-41
2023/07/24 05:25:00;;;;;;;12.68;8.90;;;;;;;16.68;100.00;99969.56;5046981;28;20210;-41
2023/07/24 05:27:25;;;;;;;10.68;8.57;;;;;;;16.68;100.00;99968.69;5042124;28;20221;-43
2023/07/24 05:29:51;;;;;;;14.48;8.52;;;;;;;16.71;100.00;99965.75;5042085;28;20266;-41
2023/07/24 05:32:17;;;;;;;14.68;8.90;;;;;;;16.72;100.00;99966.59;5040961;28;20223;-40
2023/07/24 05:34:42;;;;;;;10.75;8.98;;;;;;;16.69;100.00;99955.03;5039938;28;20648;-41
2023/07/24 05:37:08;;;;;;;9.68;8.65;;;;;;;16.73;100.00;99961.09;5041485;28;20203;-41
2023/07/24 05:39:33;;;;;;;11.38;9.07;;;;;;;16.77;100.00;99956.28;5040602;28;20172;-41
2023/07/24 05:41:59;;;;;;;19.80;9.70;;;;;;;16.75;100.00;99953.72;5041205;28;20173;-40
2023/07/24 05:44:24;;;;;;;11.77;8.43;;;;;;;16.79;100.00;99957.91;5040939;28;20209;-43
2023/07/24 05:46:50;;;;;;;15.20;9.05;;;;;;;16.73;100.00;99947.56;5037930;28;20195;-42
2023/07/24 05:49:15;;;;;;;13.85;8.80;;;;;;;16.78;100.00;99947.19;5029485;28;20183;-41
2023/07/24 05:51:41;;;;;;;15.65;8.45;;;;;;;16.70;100.00;99964.00;5024651;28;20271;-40
2023/07/24 05:54:06;;;;;;;10.50;8.68;;;;;;;16.69;100.00;99956.91;5036009;28;20690;-43
2023/07/24 05:56:31;;;;;;;14.73;9.13;;;;;;;16.65;100.00;99950.00;5042294;28;20290;-40
2023/07/24 05:58:57;;;;;;;12.55;9.30;;;;;;;16.66;100.00;99949.00;5037580;28;20925;-42
2023/07/24 06:01:22;;;;;;;13.57;9.43;;;;;;;16.71;100.00;99946.81;5041116;28;20187;-40
2023/07/24 06:03:48;;;;;;;13.05;8.98;;;;;;;16.77;100.00;99956.28;5036656;28;20183;-41
2023/07/24 06:06:14;;;;;;;13.25;8.50;;;;;;;16.82;100.00;99952.28;5040516;28;20199;-42
2023/07/24 06:08:39;;;;;;;11.63;8.60;;;;;;;16.85;100.00;99943.06;5038711;28;20183;-41
2023/07/24 06:11:05;;;;;;;15.43;9.23;;;;;;;16.86;100.00;99933.97;5038795;28;20593;-39
2023/07/24 06:13:30;;;;;;;15.35;9.23;;;;;;;16.86;100.00;99937.53;5041987;28;20218;-42
2023/07/24 06:15:56;;;;;;;13.55;8.48;;;;;;;16.87;100.00;99933.84;5043069;28;20215;-42
2023/07/24 06:18:21;;;;;;;15.52;9.00;;;;;;;16.92;100.00;99921.78;5041396;28;20179;-42
2023/07/24 06:20:49;;;;;;;15.60;9.05;;;;;;;16.87;100.00;99927.56;5041923;28;20175;-42
2023/07/24 06:23:15;;;;;;;14.80;9.55;;;;;;;16.92;100.00;99921.78;5036916;28;20180;-42
2023/07/24 06:25:40;;;;;;;14.82;8.90;;;;;;;16.92;100.00;99924.50;5038906;28;20249;-42
2023/07/24 06:28:06;;;;;;;11.30;9.00;;;;;;;16.91;100.00;99930.91;5038619;28;20163;-42
2023/07/24 06:30:31;;;;;;;12.38;8.65;;;;;;;16.92;100.00;99914.53;5041962;28;20236;-41
2023/07/24 06:32:57;;;;;;;12.80;9.15;;;;;;;16.97;100.00;99915.03;5036585;28;20658;-42
2023/07/24 06:35:22;;;;;;;12.57;9.13;;;;;;;16.98;100.00;99929.44;5042770;28;20206;-41
2023/07/24 06:37:48;;;;;;;11.55;9.13;;;;;;;16.95;100.00;99916.16;5038250;28;20249;-42
2023/07/24 06:40:13;;;;;;;12.25;8.68;;;;;;;17.02;100.00;99914.66;5042469;28;20183;-41
2023/07/24 06:42:39;;;;;;;12.70;8.65;;;;;;;17.08;100.00;99928.56;5038782;28;20176;-41
2023/07/24 06:45:06;;;;;;;14.00;9.50;;;;;;;16.98;100.00;99934.84;5042672;28;20184;-41
2023/07/24 06:47:31;;;;;;;13.05;8.40;;;;;;;16.99;100.00;99940.13;5040041;28;20192;-41
2023/07/24 06:49:57;;;;;;;12.20;8.80;;;;;;;16.94;100.00;99930.66;5040081;28;20497;-41
2023/07/24 06:52:23;;;;;;;11.43;8.98;;;;;;;16.94;100.00;99917.13;5043376;28;20244;-43
2023/07/24 06:54:48;;;;;;;14.65;10.95;;;;;;;16.96;100.00;99918.72;5034847;28;20290;-42
2023/07/24 06:57:13;;;;;;;10.93;9.80;;;;;;;17.04;100.00;99927.09;5035090;28;20194;-40
2023/07/24 06:59:39;;;;;;;11.88;9.65;;;;;;;17.05;100.00;99917.13;5037111;28;20229;-43
2023/07/24 07:02:05;;;;;;;13.27;9.82;;;;;;;17.06;100.00;99914.31;5025531;28;20199;-41
2023/07/24 07:04:30;;;;;;;12.20;9.10;;;;;;;17.07;100.00;99926.84;5039666;28;20187;-41
2023/07/24 07:06:56;;;;;;;12.73;9.30;;;;;;;17.08;100.00;99931.28;5042892;28;20214;-41
2023/07/24 07:09:21;;;;;;;9.85;8.32;;;;;;;17.08;100.00;99928.56;5044280;28;20262;-42
2023/07/24 07:11:47;;;;;;;10.90;8.77;;;;;;;17.13;100.00;99919.22;5042158;28;20250;-40
2023/07/24 07:14:12;;;;;;;12.30;8.73;;;;;;;17.15;100.00;99919.97;5030745;28;20585;-40
2023/07/24 07:16:38;;;;;;;12.73;8.70;;;;;;;17.12;100.00;99918.38;5045093;28;20200;-41
2023/07/24 07:19:03;;;;;;;12.05;8.38;;;;;;;17.13;100.00;99917.38;5042335;28;20559;-41
2023/07/24 07:21:29;;;;;;;10.77;9.50;;;;;;;17.11;100.00;99915.78;5041551;28;20192;-41
2023/07/24 07:23:55;;;;;;;10.35;8.93;;;;;;;17.14;100.00;99915.53;5042013;28;20191;-41
2023/07/24 07:26:20;;;;;;;11.27;8.45;;;;;;;17.13;100.00;99916.53;5044338;28;20199;-42
2023/07/24 07:28:46;;;;;;;11.65;9.23;;;;;;;17.14;100.00;99915.53;5046045;28;20732;-41
2023/07/24 07:31:11;;;;;;;14.95;9.80;;;;;;;17.09;100.00;99911.34;5045133;28;20262;-42
2023/07/24 07:33:37;;;;;;;11.48;9.65;;;;;;;17.13;100.00;99920.09;5044909;28;20175;-42
2023/07/24 07:36:03;;;;;;;11.98;8.73;;;;;;;17.14;100.00;99912.81;5047728;28;20206;-41
2023/07/24 07:38:29;;;;;;;13.75;9.50;;;;;;;17.12;100.00;99926.50;5044135;28;20706;-42
2023/07/24 07:40:55;;;;;;;10.27;8.68;;;;;;;17.24;100.00;99914.66;5042317;28;20252;-40
2023/07/24 07:43:20;;;;;;;12.70;9.32;;;;;;;17.34;100.00;99919.31;5039861;28;20179;-40
2023/07/24 07:45:46;;;;;;;12.02;9.65;;;;;;;17.35;100.00;99911.09;5042285;28;20570;-43
2023/07/24 07:48:12;;;;;;;10.63;9.30;;;;;;;17.40;100.00;99930.50;5025032;28;20203;-42
2023/07/24 07:50:37;;;;;;;11.00;8.63;;;;;;;17.46;100.00;99921.91;5029137;28;20188;-41
2023/07/24 07:53:03;;;;;;;13.43;9.63;;;;;;;17.53;100.00;99927.66;5039490;28;20175;-40
2023/07/24 07:55:28;;;;;;;11.73;10.40;;;;;;;17.61;100.00;99927.06;5043071;28;20568;-42
2023/07/24 07:57:53;;;;;;;12.90;9.73;;;;;;;17.69;100.00;99919.16;5045514;28;20687;-42
2023/07/24 08:00:19;;;;;;;10.80;9.70;;;;;;;17.64;100.00;99921.38;5046645;28;20184;-41
2023/07/24 08:02:45;;;;;;;16.20;10.15;;;;;;;17.64;100.00;99922.22;5042524;28;20287;-42
2023/07/24 08:05:11;;;;;;;12.30;10.10;;;;;;;17.62;100.00;99931.47;5044067;28;20540;-42
2023/07/24 08:07:37;;;;;;;12.27;11.07;;;;;;;17.50;100.00;99912.53;5040684;28;21531;-41
2023/07/24 08:10:03;;;;;;;11.52;10.32;;;;;;;17.46;100.00;99927.31;5044691;28;20194;-41
2023/07/24 08:12:29;;;;;;;12.02;10.52;;;;;;;17.42;100.00;99933.09;5045368;28;20183;-42
2023/07/24 08:14:55;;;;;;;11.30;10.20;;;;;;;17.39;100.00;99931.50;5032299;28;20200;-40
2023/07/24 08:17:21;;;;;;;11.75;10.52;;;;;;;17.41;100.00;99926.84;5042188;28;20618;-42
2023/07/24 08:19:46;;;;;;;12.40;10.55;;;;;;;17.43;100.00;99937.56;5043952;28;20175;-41
2023/07/24 08:22:12;;;;;;;13.77;10.50;;;;;;;17.37;100.00;99924.50;5043999;28;20176;-43
2023/07/24 08:24:37;;;;;;;12.52;11.25;;;;;;;17.38;100.00;99937.94;5044716;28;20645;-41
2023/07/24 08:27:03;;;;;;;12.45;10.85;;;;;;;17.34;100.00;99936.44;5042909;28;20249;-42
2023/07/24 08:29:29;;;;;;;11.77;10.57;;;;;;;17.41;100.00;99934.97;5042551;28;20625;-41
2023/07/24 08:31:54;;;;;;;12.13;10.68;;;;;;;17.34;100.00;99938.28;5046073;28;20176;-42
2023/07/24 08:34:20;;;;;;;12.18;10.65;;;;;;;17.35;100.00;99945.44;5042310;28;20171;-41
2023/07/24 08:36:45;;;;;;;12.02;10.82;;;;;;;17.35;100.00;99940.00;5038230;28;20207;-41
2023/07/24 08:39:11;;;;;;;14.82;12.00;;;;;;;17.29;100.00;99941.34;5039671;28;20204;-41
2023/07/24 08:41:37;;;;;;;13.23;11.95;;;;;;;17.29;100.00;99944.94;5038519;28;20172;-43
2023/07/24 08:44:08;;;;;;;13.43;12.13;;;;;;;17.20;100.00;99948.38;5042358;28;20569;-42
2023/07/24 08:46:38;;;;;;;13.25;12.02;;;;;;;17.25;100.00;99939.88;5042810;28;20611;-41
2023/07/24 08:49:04;;;;;;;13.32;11.95;;;;;;;17.32;100.00;99940.25;5043700;28;20187;-41
2023/07/24 08:51:31;;;;;;;13.00;11.55;;;;;;;17.43;100.00;99935.69;5029950;28;20542;-42
2023/07/24 08:53:57;;;;;;;13.85;11.80;;;;;;;17.46;100.00;99929.16;5037508;28;20219;-43
2023/07/24 08:56:23;;;;;;;12.68;11.50;;;;;;;17.59;100.00;99931.75;5032265;28;20224;-40
2023/07/24 08:58:49;;;;;;;12.93;10.52;;;;;;;17.59;100.00;99931.75;5044266;28;20229;-42
2023/07/24 09:01:15;;;;;;;11.85;10.65;;;;;;;17.75;100.00;99920.50;5031584;28;20266;-40
2023/07/24 09:03:40;;;;;;;12.52;11.40;;;;;;;17.68;100.00;99912.88;5038746;28;20233;-42
2023/07/24 09:06:09;;;;;;;11.82;10.75;;;;;;;17.70;100.00;99904.63;5042026;28;20697;-42
2023/07/24 09:08:36;;;;;;;12.57;11.27;;;;;;;17.68;100.00;99920.13;5047791;28;20178;-41
2023/07/24 09:11:04;;;;;;;12.88;10.43;;;;;;;17.75;100.00;99915.06;5038404;28;20163;-40
2023/07/24 09:13:30;;;;;;;14.07;10.95;;;;;;;17.77;100.00;99913.09;5044195;28;20630;-42
2023/07/24 09:15:55;;;;;;;10.85;9.75;;;;;;;17.83;100.00;99905.34;5040050;28;20200;-40
2023/07/24 09:18:22;;;;;;;12.55;11.23;;;;;;;17.75;100.00;99906.94;5037639;28;20250;-42
2023/07/24 09:20:49;;;;;;;12.10;10.90;;;;;;;17.65;100.00;99925.81;5030032;28;20553;-42
2023/07/24 09:23:15;;;;;;;10.93;9.52;;;;;;;17.85;100.00;99918.78;5040504;28;20176;-41
2023/07/24 09:25:43;;;;;;;11.70;10.50;;;;;;;17.91;100.00;99918.28;5039798;28;20320;-40
2023/07/24 09:28:14;;;;;;;14.38;11.05;;;;;;;17.80;100.00;99926.38;5041846;28;20186;-42
2023/07/24 09:30:40;;;;;;;13.88;10.40;;;;;;;18.01;100.00;99919.22;5037856;28;20186;-41
2023/07/24 09:33:08;;;;;;;13.15;10.40;;;;;;;18.02;100.00;99915.53;5025851;28;20202;-42
2023/07/24 09:35:33;;;;;;;13.68;10.57;;;;;;;18.18;100.00;99912.38;5043156;28;20226;-41
2023/07/24 09:38:10;;;;;;;12.73;10.70;;;;;;;18.29;100.00;99912.31;5038244;28;20517;-44
2023/07/24 09:40:43;;;;;;;13.95;10.80;;;;;;;18.56;100.00;99913.66;5042712;28;20176;-42
2023/07/24 09:43:17;;;;;;;13.85;10.80;;;;;;;18.69;100.00;99908.91;5039561;28;20171;-44
2023/07/24 09:45:44;;;;;;;11.45;10.13;;;;;;;18.83;100.00;99920.44;5042356;28;20200;-42
2023/07/24 09:48:14;;;;;;;12.63;10.63;;;;;;;18.96;100.00;99914.78;5035646;28;20341;-41
2023/07/24 09:50:41;;;;;;;11.32;10.23;;;;;;;18.85;100.00;99903.03;5039274;28;20175;-43
2023/07/24 09:53:13;;;;;;;15.52;10.00;;;;;;;18.71;100.00;99906.03;5038162;28;20602;-42
2023/07/24 09:55:49;;;;;;;9.70;8.82;;;;;;;18.69;100.00;99903.47;5042360;28;20199;-42
2023/07/24 09:58:15;;;;;;;10.98;9.13;;;;;;;18.49;100.00;99897.03;5042576;28;20171;-41
2023/07/24 10:00:42;;;;;;;13.68;9.45;;;;;;;18.43;100.00;99894.88;5036531;28;20245;-40
2023/07/24 10:03:08;;;;;;;10.35;9.13;;;;;;;18.49;100.00;99899.75;5039610;28;20553;-42
2023/07/24 10:05:33;;;;;;;11.40;9.25;;;;;;;18.46;100.00;99893.75;5041338;28;20192;-42
2023/07/24 10:07:59;;;;;;;12.48;9.32;;;;;;;18.63;100.00;99893.16;5042749;28;20613;-43
2023/07/24 10:10:27;;;;;;;12.65;8.70;;;;;;;18.84;100.00;99886.88;5039858;28;20215;-44
2023/07/24 10:12:53;;;;;;;13.55;9.10;;;;;;;18.72;100.00;99878.78;5036118;28;20183;-44
2023/07/24 10:15:18;;;;;;;11.27;8.65;;;;;;;19.20;100.00;99876.44;5041957;28;20264;-42
2023/07/24 10:17:44;;;;;;;10.82;8.43;;;;;;;19.94;100.00;99873.31;5038468;28;20187;-41
2023/07/24 10:20:11;;;;;;;13.02;9.10;;;;;;;20.19;100.00;99863.75;5038516;28;20202;-42
2023/07/24 10:22:41;;;;;;;9.07;7.75;;;;;;;20.34;100.00;99856.88;5039329;28;20175;-41
2023/07/24 10:25:08;;;;;;;9.23;7.55;;;;;;;20.61;100.00;99857.13;5042234;28;20652;-43
2023/07/24 10:27:44;;;;;;;8.95;7.18;;;;;;;20.18;100.00;99845.69;5028844;28;20232;-42
2023/07/24 10:30:09;;;;;;;11.57;7.90;;;;;;;19.81;100.00;99845.56;5042226;28;20236;-41
2023/07/24 10:32:46;;;;;;;10.70;7.13;;;;;;;20.34;100.00;99854.13;5039925;28;20575;-44
2023/07/24 10:35:11;;;;;;;8.48;7.05;;;;;;;20.30;100.00;99849.13;5036480;28;20221;-41
2023/07/24 10:37:37;;;;;;;10.18;7.18;;;;;;;20.77;100.00;99851.91;5036434;28;20179;-43
2023/07/24 10:40:04;;;;;;;8.57;6.90;;;;;;;20.96;100.00;99832.78;5040638;28;20250;-42
2023/07/24 10:42:33;;;;;;;10.18;6.78;;;;;;;20.96;99.08;99837.38;5041648;28;20188;-42
2023/07/24 10:45:08;;;;;;;9.85;7.38;;;;;;;20.92;96.54;99835.97;5039689;28;20225;-43
2023/07/24 10:47:34;;;;;;;9.43;6.60;;;;;;;21.39;95.11;99825.81;5039809;28;20183;-41
2023/07/24 10:50:03;;;;;;;9.95;6.28;;;;;;;21.14;93.20;99824.69;5043819;28;20556;-41
2023/07/24 10:52:33;;;;;;;9.20;6.20;;;;;;;21.15;93.16;99820.94;5043186;28;20201;-42
2023/07/24 10:55:04;;;;;;;11.10;6.63;;;;;;;21.71;92.21;99816.31;5041953;28;20187;-42
2023/07/24 10:57:30;;;;;;;10.75;5.97;;;;;;;21.24;90.37;99811.00;5036467;28;20199;-43
2023/07/24 10:59:55;;;;;;;8.50;5.60;;;;;;;21.50;90.35;99813.88;5034993;28;20664;-42
2023/07/24 11:02:21;;;;;;;7.30;5.80;;;;;;;22.09;89.90;99808.81;5039303;28;20207;-42
2023/07/24 11:04:47;;;;;;;7.28;5.90;;;;;;;21.63;88.45;99799.88;5039270;28;20270;-42
2023/07/24 11:07:13;;;;;;;10.32;5.70;;;;;;;21.35;88.72;99799.88;5036527;28;20548;-42